createdAt,value
2023-02-27T00:04:37.748Z,4.15
2023-02-27T00:14:44.288Z,7.82
2023-02-27T00:19:51.659Z,6.53
2023-02-27T00:24:55.275Z,4.80
2023-02-27T00:29:58.947Z,7.63
2023-02-27T00:35:04.781Z,5.93
2023-02-27T00:40:09.544Z,6.18
2023-02-27T00:45:13.441Z,8.65
2023-02-27T00:50:18.892Z,7.00
2023-02-27T00:55:22.524Z,11.17
2023-02-27T01:00:26.383Z,8.80
2023-02-27T01:05:32.811Z,10.50
2023-02-27T01:10:36.420Z,12.38
2023-02-27T01:15:40.071Z,7.70
2023-02-27T01:20:45.401Z,7.38
2023-02-27T01:25:49.614Z,7.88
2023-02-27T01:30:53.333Z,8.10
2023-02-27T01:35:58.660Z,7.93
2023-02-27T01:41:02.321Z,6.75
2023-02-27T01:46:06.148Z,6.28
2023-02-27T01:51:17.806Z,7.93
2023-02-27T01:56:24.305Z,8.98
2023-02-27T02:01:28.976Z,7.45
2023-02-27T02:06:37.256Z,6.20
2023-02-27T02:11:42.156Z,7.45
2023-02-27T02:17:06.515Z,12.05
2023-02-27T02:22:41.963Z,10.38
2023-02-27T02:28:07.021Z,12.02
2023-02-27T02:33:50.377Z,15.25
2023-02-27T02:39:45.297Z,11.70
2023-02-27T02:45:00.792Z,15.23
2023-02-27T02:50:12.988Z,12.55
2023-02-27T02:55:24.456Z,10.05
2023-02-27T03:00:32.539Z,10.13
2023-02-27T03:05:40.201Z,11.30
2023-02-27T03:10:50.086Z,13.48
2023-02-27T03:15:59.178Z,16.58
2023-02-27T03:21:09.686Z,14.30
2023-02-27T03:26:20.182Z,12.60
2023-02-27T03:31:31.204Z,21.55
2023-02-27T03:36:43.888Z,17.25
2023-02-27T03:41:53.241Z,16.08
2023-02-27T03:46:57.111Z,17.85
2023-02-27T03:52:00.858Z,14.43
2023-02-27T03:57:08.979Z,15.68
2023-02-27T04:02:12.850Z,21.23
2023-02-27T04:07:24.823Z,17.50
2023-02-27T04:12:45.978Z,17.30
2023-02-27T04:17:57.741Z,20.92
2023-02-27T04:23:06.986Z,18.98
2023-02-27T04:28:17.578Z,17.48
2023-02-27T04:33:31.293Z,21.75
2023-02-27T04:38:39.902Z,14.80
2023-02-27T04:43:46.360Z,14.93
2023-02-27T04:54:00.347Z,15.23
2023-02-27T04:59:10.284Z,15.05
2023-02-27T05:04:16.709Z,11.63
2023-02-27T05:14:33.421Z,15.45
2023-02-27T05:19:41.199Z,17.60
2023-02-27T05:24:57.839Z,15.52
2023-02-27T05:35:19.868Z,18.17
2023-02-27T05:46:14.350Z,13.68
2023-02-27T05:51:20.253Z,13.57
2023-02-27T05:56:27.382Z,16.67
2023-02-27T06:01:33.327Z,13.95
2023-02-27T06:06:37.468Z,15.17
2023-02-27T06:11:41.144Z,18.17
2023-02-27T06:16:47.214Z,11.80
2023-02-27T06:21:50.898Z,17.20
2023-02-27T06:26:54.500Z,12.82
2023-02-27T06:31:59.802Z,11.65
2023-02-27T06:37:04.338Z,10.90
2023-02-27T06:42:08.173Z,16.45
2023-02-27T06:47:13.478Z,14.23
2023-02-27T06:52:17.158Z,19.30
2023-02-27T06:57:20.813Z,18.48
2023-02-27T07:02:26.103Z,14.93
2023-02-27T07:07:34.353Z,10.13
2023-02-27T07:12:40.471Z,13.15
2023-02-27T07:17:45.769Z,19.05
2023-02-27T07:22:49.443Z,10.75
2023-02-27T07:27:53.063Z,13.55
2023-02-27T07:32:58.360Z,19.92
2023-02-27T07:38:02.006Z,13.75
2023-02-27T07:43:05.669Z,12.60
2023-02-27T07:48:10.963Z,14.23
2023-02-27T07:53:14.599Z,15.65
2023-02-27T07:58:18.259Z,11.98
2023-02-27T08:03:23.544Z,14.27
2023-02-27T08:08:27.246Z,15.98
2023-02-27T08:13:58.938Z,14.15
2023-02-27T08:18:56.149Z,16.38
2023-02-27T08:23:59.775Z,15.77
2023-02-27T08:29:03.473Z,12.20
2023-02-27T08:34:10.598Z,11.40
2023-02-27T08:39:14.477Z,15.32
2023-02-27T08:44:18.112Z,16.67
2023-02-27T08:49:23.398Z,11.13
2023-02-27T08:54:27.017Z,10.73
2023-02-27T08:59:30.701Z,15.85
2023-02-27T09:04:35.972Z,9.32
2023-02-27T09:09:39.579Z,11.25
2023-02-27T09:14:43.244Z,10.95
2023-02-27T09:19:48.540Z,10.57
2023-02-27T09:24:52.347Z,11.10
2023-02-27T09:29:55.989Z,9.32
2023-02-27T09:35:01.279Z,11.80
2023-02-27T09:40:05.732Z,13.00
2023-02-27T09:45:18.614Z,13.02
2023-02-27T09:50:34.516Z,10.23
2023-02-27T09:55:40.943Z,8.30
2023-02-27T10:00:53.504Z,10.18
2023-02-27T10:06:15.922Z,11.40
2023-02-27T10:11:25.310Z,11.05
2023-02-27T10:16:30.799Z,11.90
2023-02-27T10:21:40.493Z,16.93
2023-02-27T10:26:46.547Z,11.10
2023-02-27T10:31:57.235Z,13.23
2023-02-27T10:37:06.184Z,9.40
2023-02-27T10:42:13.264Z,10.88
2023-02-27T10:47:17.320Z,7.50
2023-02-27T10:52:22.665Z,10.65
2023-02-27T10:57:31.453Z,8.35
2023-02-27T11:02:39.015Z,11.43
2023-02-27T11:07:44.909Z,10.80
2023-02-27T11:13:01.038Z,7.50
2023-02-27T11:18:25.493Z,8.30
2023-02-27T11:23:30.801Z,7.55
2023-02-27T11:28:34.434Z,7.30
2023-02-27T11:33:48.534Z,8.35
2023-02-27T11:38:55.477Z,11.50
2023-02-27T11:44:00.706Z,11.02
2023-02-27T11:49:17.126Z,10.30
2023-02-27T11:54:33.260Z,8.63
2023-02-27T11:59:46.889Z,10.57
2023-02-27T12:04:54.867Z,8.25
2023-02-27T12:10:06.999Z,8.45
2023-02-27T12:15:24.805Z,7.65
2023-02-27T12:20:36.272Z,8.48
2023-02-27T12:25:46.718Z,9.68
2023-02-27T12:31:00.899Z,7.65
2023-02-27T12:36:09.885Z,7.60
2023-02-27T12:41:32.372Z,9.73
2023-02-27T12:46:47.755Z,10.95
2023-02-27T12:52:01.836Z,10.85
2023-02-27T12:57:28.886Z,9.43
2023-02-27T13:07:51.881Z,8.82
2023-02-27T13:13:04.254Z,9.73
2023-02-27T13:18:28.388Z,5.25
2023-02-27T13:23:41.436Z,8.85
2023-02-27T13:28:47.526Z,7.70
2023-02-27T13:34:00.692Z,6.50
2023-02-27T13:39:04.572Z,11.25
2023-02-27T13:44:49.178Z,8.85
2023-02-27T13:49:55.886Z,10.13
2023-02-27T13:55:11.189Z,10.77
2023-02-27T14:00:23.051Z,12.60
2023-02-27T14:05:34.996Z,13.57
2023-02-27T14:10:41.856Z,10.00
2023-02-27T14:15:59.377Z,14.40
2023-02-27T14:21:04.976Z,12.77
2023-02-27T14:26:17.304Z,17.77
2023-02-27T14:31:25.846Z,17.75
2023-02-27T14:36:33.736Z,14.65
2023-02-27T14:41:44.078Z,18.52
2023-02-27T14:46:47.987Z,19.42
2023-02-27T14:51:53.542Z,20.23
2023-02-27T14:56:58.461Z,15.68
2023-02-27T15:02:04.279Z,20.95
2023-02-27T15:07:19.838Z,16.02
2023-02-27T15:12:24.546Z,19.67
2023-02-27T15:17:37.101Z,15.82
2023-02-27T15:22:42.422Z,15.93
2023-02-27T15:27:46.111Z,18.73
2023-02-27T15:32:50.388Z,18.77
2023-02-27T15:37:57.624Z,14.77
2023-02-27T15:43:02.065Z,18.50
2023-02-27T15:48:06.855Z,17.13
2023-02-27T15:53:14.571Z,17.70
2023-02-27T15:58:24.605Z,19.02
2023-02-27T16:03:30.677Z,17.95
2023-02-27T16:08:36.008Z,19.77
2023-02-27T16:13:41.544Z,20.63
2023-02-27T16:18:48.307Z,14.13
2023-02-27T16:23:53.675Z,15.45
2023-02-27T16:28:58.530Z,15.15
2023-02-27T16:34:13.847Z,20.73
2023-02-27T16:39:19.170Z,6.50
2023-02-27T17:27:14.255Z,2.70
2023-02-27T17:32:17.917Z,1.17
2023-02-27T17:37:21.632Z,2.00
2023-02-27T17:42:26.981Z,1.50
2023-02-27T17:47:30.618Z,1.85
2023-02-27T17:52:36.702Z,5.55
2023-02-27T17:57:42.268Z,2.92
2023-02-27T18:02:46.150Z,4.17
2023-02-27T18:07:49.850Z,4.43
2023-02-27T18:12:55.116Z,3.45
2023-02-27T18:17:58.758Z,6.82
2023-02-27T18:23:02.393Z,4.72
2023-02-27T18:28:08.622Z,3.95
2023-02-27T18:33:12.244Z,2.28
2023-02-27T18:38:16.242Z,4.35
2023-02-27T18:43:21.512Z,3.70
2023-02-27T18:48:25.406Z,2.88
2023-02-27T18:53:29.063Z,2.20
2023-02-27T18:58:35.337Z,0.93
2023-02-27T19:03:39.098Z,4.90
2023-02-27T19:08:42.925Z,4.75
2023-02-27T19:13:48.400Z,6.43
2023-02-27T19:18:52.013Z,5.53
2023-02-27T19:23:55.796Z,8.68
2023-02-27T19:29:04.323Z,6.28
2023-02-27T19:34:07.973Z,7.45
2023-02-27T19:39:12.347Z,6.18
2023-02-27T19:44:17.648Z,7.20
2023-02-27T19:49:21.308Z,7.85
2023-02-27T19:54:24.923Z,6.43
2023-02-27T19:59:30.190Z,9.18
2023-02-27T20:04:34.179Z,7.32
2023-02-27T20:09:37.836Z,11.07
2023-02-27T20:14:43.164Z,6.00
2023-02-27T20:19:47.467Z,12.77
2023-02-27T20:24:51.137Z,5.05
2023-02-27T20:29:57.453Z,4.63
2023-02-27T20:35:01.108Z,5.65
2023-02-27T20:40:05.206Z,7.45
2023-02-27T20:45:11.204Z,6.35
2023-02-27T20:50:14.830Z,8.48
2023-02-27T20:55:18.546Z,11.55
2023-02-27T21:00:24.357Z,9.63
2023-02-27T21:05:27.952Z,10.27
2023-02-27T21:10:31.609Z,11.02
2023-02-27T21:15:38.798Z,10.82
2023-02-27T21:20:45.079Z,11.05
2023-02-27T21:30:53.331Z,11.10
2023-02-27T21:35:57.065Z,11.00
2023-02-27T21:41:04.699Z,10.00
2023-02-27T21:46:12.709Z,11.20
2023-02-27T21:51:19.722Z,13.73
2023-02-27T21:56:28.631Z,11.23
2023-02-27T22:01:34.882Z,10.23
2023-02-27T22:06:38.527Z,12.38
2023-02-27T22:11:42.187Z,14.25
2023-02-27T22:16:47.536Z,11.75
2023-02-27T22:21:51.199Z,10.63
2023-02-27T22:26:54.823Z,13.63
2023-02-27T22:32:00.165Z,9.77
2023-02-27T22:37:03.835Z,9.37
2023-02-27T22:42:07.520Z,11.73
2023-02-27T22:47:13.166Z,9.80
2023-02-27T22:52:16.752Z,11.73
2023-02-27T22:57:20.412Z,12.38
2023-02-27T23:02:25.751Z,10.27
2023-02-27T23:07:29.374Z,10.40
2023-02-27T23:12:33.008Z,15.45
2023-02-27T23:17:49.281Z,14.32
2023-02-27T23:22:56.477Z,11.82
2023-02-27T23:28:00.141Z,15.60
2023-02-27T23:33:05.499Z,12.48
2023-02-27T23:38:09.130Z,13.83
2023-02-27T23:43:12.887Z,9.65
2023-02-27T23:48:18.222Z,9.90
2023-02-27T23:53:21.864Z,9.20
2023-02-27T23:58:25.565Z,9.48
